sensor_id;sensor_type;location;lat;lon;timestamp;temperature;humidity
360;DHT22;168;48.872;9.226;2022-10-16T00:00:26;17.50;95.00
360;DHT22;168;48.872;9.226;2022-10-16T00:02:55;17.50;94.80
360;DHT22;168;48.872;9.226;2022-10-16T00:05:22;17.50;94.80
360;DHT22;168;48.872;9.226;2022-10-16T00:07:50;17.50;94.80
360;DHT22;168;48.872;9.226;2022-10-16T00:10:18;17.50;95.00
360;DHT22;168;48.872;9.226;2022-10-16T00:12:45;17.60;95.00
360;DHT22;168;48.872;9.226;2022-10-16T00:15:13;17.60;95.00
360;DHT22;168;48.872;9.226;2022-10-16T00:17:40;17.60;95.20
360;DHT22;168;48.872;9.226;2022-10-16T00:20:09;17.60;95.30
360;DHT22;168;48.872;9.226;2022-10-16T00:22:37;17.60;95.30
360;DHT22;168;48.872;9.226;2022-10-16T00:25:04;17.60;95.30
360;DHT22;168;48.872;9.226;2022-10-16T00:27:33;17.50;95.40
360;DHT22;168;48.872;9.226;2022-10-16T00:30:01;17.50;95.20
360;DHT22;168;48.872;9.226;2022-10-16T00:32:29;17.40;94.80
360;DHT22;168;48.872;9.226;2022-10-16T00:34:56;17.40;94.70
360;DHT22;168;48.872;9.226;2022-10-16T00:37:25;17.40;94.80
360;DHT22;168;48.872;9.226;2022-10-16T00:39:52;17.40;95.00
360;DHT22;168;48.872;9.226;2022-10-16T00:42:20;17.40;95.10
360;DHT22;168;48.872;9.226;2022-10-16T00:44:50;17.50;95.20
360;DHT22;168;48.872;9.226;2022-10-16T00:47:21;17.60;95.50
360;DHT22;168;48.872;9.226;2022-10-16T00:49:58;17.60;95.60
360;DHT22;168;48.872;9.226;2022-10-16T00:52:27;17.50;95.50
360;DHT22;168;48.872;9.226;2022-10-16T00:54:59;17.50;95.40
360;DHT22;168;48.872;9.226;2022-10-16T00:57:27;17.40;95.30
360;DHT22;168;48.872;9.226;2022-10-16T00:59:55;17.40;95.00
360;DHT22;168;48.872;9.226;2022-10-16T01:02:23;17.40;95.20
360;DHT22;168;48.872;9.226;2022-10-16T01:04:51;17.50;95.30
360;DHT22;168;48.872;9.226;2022-10-16T01:07:30;17.40;95.20
360;DHT22;168;48.872;9.226;2022-10-16T01:10:06;17.40;94.90
360;DHT22;168;48.872;9.226;2022-10-16T01:12:40;17.40;94.80
360;DHT22;168;48.872;9.226;2022-10-16T01:15:13;17.40;94.70
360;DHT22;168;48.872;9.226;2022-10-16T01:17:51;17.40;94.80
360;DHT22;168;48.872;9.226;2022-10-16T01:20:24;17.40;94.60
360;DHT22;168;48.872;9.226;2022-10-16T01:23:05;17.40;94.60
360;DHT22;168;48.872;9.226;2022-10-16T01:25:46;17.40;94.60
360;DHT22;168;48.872;9.226;2022-10-16T01:28:20;17.50;94.70
360;DHT22;168;48.872;9.226;2022-10-16T01:30:50;17.50;94.70
360;DHT22;168;48.872;9.226;2022-10-16T01:33:21;17.50;94.50
360;DHT22;168;48.872;9.226;2022-10-16T01:35:53;17.50;94.80
360;DHT22;168;48.872;9.226;2022-10-16T01:38:26;17.50;94.80
360;DHT22;168;48.872;9.226;2022-10-16T01:41:00;17.50;94.90
360;DHT22;168;48.872;9.226;2022-10-16T01:43:34;17.50;94.80
360;DHT22;168;48.872;9.226;2022-10-16T01:46:02;17.50;94.70
360;DHT22;168;48.872;9.226;2022-10-16T01:48:31;17.50;94.90
360;DHT22;168;48.872;9.226;2022-10-16T01:51:04;17.40;94.70
360;DHT22;168;48.872;9.226;2022-10-16T01:53:33;17.40;94.50
360;DHT22;168;48.872;9.226;2022-10-16T01:56:04;17.40;94.40
360;DHT22;168;48.872;9.226;2022-10-16T01:58:37;17.40;94.50
360;DHT22;168;48.872;9.226;2022-10-16T02:01:09;17.40;94.50
360;DHT22;168;48.872;9.226;2022-10-16T02:03:40;17.40;94.50
360;DHT22;168;48.872;9.226;2022-10-16T02:06:09;17.40;94.30
360;DHT22;168;48.872;9.226;2022-10-16T02:08:37;17.40;94.30
360;DHT22;168;48.872;9.226;2022-10-16T02:11:06;17.50;94.60
360;DHT22;168;48.872;9.226;2022-10-16T02:13:39;17.50;94.70
360;DHT22;168;48.872;9.226;2022-10-16T02:16:09;17.50;94.60
360;DHT22;168;48.872;9.226;2022-10-16T02:18:37;17.50;94.80
360;DHT22;168;48.872;9.226;2022-10-16T02:21:13;17.50;94.60
360;DHT22;168;48.872;9.226;2022-10-16T02:23:47;17.40;94.20
360;DHT22;168;48.872;9.226;2022-10-16T02:26:22;17.40;94.10
360;DHT22;168;48.872;9.226;2022-10-16T02:28:55;17.40;94.10
360;DHT22;168;48.872;9.226;2022-10-16T02:31:26;17.50;94.00
360;DHT22;168;48.872;9.226;2022-10-16T02:33:55;17.50;94.00
360;DHT22;168;48.872;9.226;2022-10-16T02:36:26;17.50;94.00
360;DHT22;168;48.872;9.226;2022-10-16T02:38:54;17.60;94.10
360;DHT22;168;48.872;9.226;2022-10-16T02:41:23;17.60;94.10
360;DHT22;168;48.872;9.226;2022-10-16T02:43:50;17.60;94.20
360;DHT22;168;48.872;9.226;2022-10-16T02:46:19;17.60;94.10
360;DHT22;168;48.872;9.226;2022-10-16T02:48:47;17.60;94.30
360;DHT22;168;48.872;9.226;2022-10-16T02:51:14;17.60;94.30
360;DHT22;168;48.872;9.226;2022-10-16T02:53:42;17.60;94.60
360;DHT22;168;48.872;9.226;2022-10-16T02:56:09;17.60;95.00
360;DHT22;168;48.872;9.226;2022-10-16T02:58:36;17.60;95.00
360;DHT22;168;48.872;9.226;2022-10-16T03:01:04;17.50;94.90
360;DHT22;168;48.872;9.226;2022-10-16T03:03:33;17.50;94.90
360;DHT22;168;48.872;9.226;2022-10-16T03:06:00;17.50;94.60
360;DHT22;168;48.872;9.226;2022-10-16T03:08:27;17.40;94.30
360;DHT22;168;48.872;9.226;2022-10-16T03:10:55;17.40;94.00
360;DHT22;168;48.872;9.226;2022-10-16T03:13:22;17.40;93.90
360;DHT22;168;48.872;9.226;2022-10-16T03:15:50;17.30;93.90
360;DHT22;168;48.872;9.226;2022-10-16T03:18:17;17.30;93.90
360;DHT22;168;48.872;9.226;2022-10-16T03:20:46;17.30;93.70
360;DHT22;168;48.872;9.226;2022-10-16T03:23:14;17.20;93.50
360;DHT22;168;48.872;9.226;2022-10-16T03:25:42;17.20;93.80
360;DHT22;168;48.872;9.226;2022-10-16T03:28:09;17.20;93.80
360;DHT22;168;48.872;9.226;2022-10-16T03:30:36;17.20;93.50
360;DHT22;168;48.872;9.226;2022-10-16T03:33:05;17.20;93.50
360;DHT22;168;48.872;9.226;2022-10-16T03:35:33;17.20;93.60
360;DHT22;168;48.872;9.226;2022-10-16T03:38:02;17.10;93.50
360;DHT22;168;48.872;9.226;2022-10-16T03:40:29;17.00;93.20
360;DHT22;168;48.872;9.226;2022-10-16T03:42:58;17.00;92.90
360;DHT22;168;48.872;9.226;2022-10-16T03:45:26;17.00;93.00
360;DHT22;168;48.872;9.226;2022-10-16T03:47:53;17.00;92.80
360;DHT22;168;48.872;9.226;2022-10-16T03:50:21;16.90;92.50
360;DHT22;168;48.872;9.226;2022-10-16T03:52:48;16.90;92.30
360;DHT22;168;48.872;9.226;2022-10-16T03:55:17;16.80;92.10
360;DHT22;168;48.872;9.226;2022-10-16T03:57:44;16.90;92.10
360;DHT22;168;48.872;9.226;2022-10-16T04:00:12;16.90;92.00
360;DHT22;168;48.872;9.226;2022-10-16T04:02:40;16.90;92.20
360;DHT22;168;48.872;9.226;2022-10-16T04:05:08;16.90;92.40
360;DHT22;168;48.872;9.226;2022-10-16T04:07:35;17.00;92.50
360;DHT22;168;48.872;9.226;2022-10-16T04:10:05;16.90;92.30
360;DHT22;168;48.872;9.226;2022-10-16T04:12:34;17.00;92.30
360;DHT22;168;48.872;9.226;2022-10-16T04:15:02;17.00;92.50
360;DHT22;168;48.872;9.226;2022-10-16T04:17:30;17.00;92.40
360;DHT22;168;48.872;9.226;2022-10-16T04:19:57;16.90;92.30
360;DHT22;168;48.872;9.226;2022-10-16T04:22:25;16.90;92.00
360;DHT22;168;48.872;9.226;2022-10-16T04:24:52;16.80;91.70
360;DHT22;168;48.872;9.226;2022-10-16T04:27:22;16.80;91.40
360;DHT22;168;48.872;9.226;2022-10-16T04:29:51;16.70;91.30
360;DHT22;168;48.872;9.226;2022-10-16T04:32:18;16.70;91.20
360;DHT22;168;48.872;9.226;2022-10-16T04:34:46;16.70;91.00
360;DHT22;168;48.872;9.226;2022-10-16T04:37:15;16.70;91.00
360;DHT22;168;48.872;9.226;2022-10-16T04:39:43;16.70;91.00
360;DHT22;168;48.872;9.226;2022-10-16T04:42:11;16.70;91.00
360;DHT22;168;48.872;9.226;2022-10-16T04:44:38;16.80;91.00
360;DHT22;168;48.872;9.226;2022-10-16T04:47:07;16.80;91.00
360;DHT22;168;48.872;9.226;2022-10-16T04:49:34;16.80;91.00
360;DHT22;168;48.872;9.226;2022-10-16T04:52:02;16.80;91.00
360;DHT22;168;48.872;9.226;2022-10-16T04:54:29;16.80;91.10
360;DHT22;168;48.872;9.226;2022-10-16T04:56:57;16.80;91.30
360;DHT22;168;48.872;9.226;2022-10-16T04:59:36;16.90;91.80
360;DHT22;168;48.872;9.226;2022-10-16T05:02:14;16.80;92.00
360;DHT22;168;48.872;9.226;2022-10-16T05:04:49;16.80;91.80
360;DHT22;168;48.872;9.226;2022-10-16T05:07:16;16.80;91.70
360;DHT22;168;48.872;9.226;2022-10-16T05:09:43;16.80;91.70
360;DHT22;168;48.872;9.226;2022-10-16T05:12:11;16.80;91.90
360;DHT22;168;48.872;9.226;2022-10-16T05:14:39;16.80;92.30
360;DHT22;168;48.872;9.226;2022-10-16T05:17:06;16.80;92.20
360;DHT22;168;48.872;9.226;2022-10-16T05:19:35;16.80;92.00
360;DHT22;168;48.872;9.226;2022-10-16T05:22:03;16.70;91.70
360;DHT22;168;48.872;9.226;2022-10-16T05:24:32;16.70;91.60
360;DHT22;168;48.872;9.226;2022-10-16T05:27:09;16.70;91.60
360;DHT22;168;48.872;9.226;2022-10-16T05:29:48;16.70;91.50
360;DHT22;168;48.872;9.226;2022-10-16T05:32:17;16.70;91.40
360;DHT22;168;48.872;9.226;2022-10-16T05:34:46;16.80;91.50
360;DHT22;168;48.872;9.226;2022-10-16T05:37:13;16.80;91.50
360;DHT22;168;48.872;9.226;2022-10-16T05:39:41;16.70;91.40
360;DHT22;168;48.872;9.226;2022-10-16T05:42:09;16.70;91.50
360;DHT22;168;48.872;9.226;2022-10-16T05:44:38;16.70;91.40
360;DHT22;168;48.872;9.226;2022-10-16T05:47:05;16.70;91.20
360;DHT22;168;48.872;9.226;2022-10-16T05:49:33;16.70;91.10
360;DHT22;168;48.872;9.226;2022-10-16T05:52:02;16.60;91.00
360;DHT22;168;48.872;9.226;2022-10-16T05:54:31;16.70;91.00
360;DHT22;168;48.872;9.226;2022-10-16T05:56:59;16.70;91.10
360;DHT22;168;48.872;9.226;2022-10-16T05:59:26;16.70;91.00
360;DHT22;168;48.872;9.226;2022-10-16T06:01:53;16.70;91.00
360;DHT22;168;48.872;9.226;2022-10-16T06:04:21;16.60;90.80
360;DHT22;168;48.872;9.226;2022-10-16T06:06:51;16.60;90.90
360;DHT22;168;48.872;9.226;2022-10-16T06:09:20;16.60;90.60
360;DHT22;168;48.872;9.226;2022-10-16T06:11:50;16.60;90.60
360;DHT22;168;48.872;9.226;2022-10-16T06:14:17;16.70;90.40
360;DHT22;168;48.872;9.226;2022-10-16T06:16:45;16.70;90.50
360;DHT22;168;48.872;9.226;2022-10-16T06:19:12;16.70;90.40
360;DHT22;168;48.872;9.226;2022-10-16T06:21:43;16.70;90.50
360;DHT22;168;48.872;9.226;2022-10-16T06:24:10;16.70;90.60
360;DHT22;168;48.872;9.226;2022-10-16T06:26:40;16.80;90.80
360;DHT22;168;48.872;9.226;2022-10-16T06:29:08;16.80;90.90
360;DHT22;168;48.872;9.226;2022-10-16T06:31:38;16.80;91.00
360;DHT22;168;48.872;9.226;2022-10-16T06:45:31;16.90;91.40
360;DHT22;168;48.872;9.226;2022-10-16T06:47:59;16.90;91.30
360;DHT22;168;48.872;9.226;2022-10-16T06:50:26;16.90;91.40
360;DHT22;168;48.872;9.226;2022-10-16T06:52:54;17.00;91.10
360;DHT22;168;48.872;9.226;2022-10-16T06:55:22;17.00;91.20
360;DHT22;168;48.872;9.226;2022-10-16T06:57:49;17.00;91.40
360;DHT22;168;48.872;9.226;2022-10-16T07:10:12;17.30;92.00
360;DHT22;168;48.872;9.226;2022-10-16T07:12:46;17.40;92.20
360;DHT22;168;48.872;9.226;2022-10-16T07:15:14;17.50;92.50
360;DHT22;168;48.872;9.226;2022-10-16T07:17:42;17.60;92.80
360;DHT22;168;48.872;9.226;2022-10-16T07:27:29;17.80;93.80
360;DHT22;168;48.872;9.226;2022-10-16T07:30:19;17.90;94.10
360;DHT22;168;48.872;9.226;2022-10-16T07:33:22;17.90;94.20
360;DHT22;168;48.872;9.226;2022-10-16T07:36:28;17.90;94.10
360;DHT22;168;48.872;9.226;2022-10-16T07:38:58;17.90;94.40
360;DHT22;168;48.872;9.226;2022-10-16T07:41:33;17.90;94.40
360;DHT22;168;48.872;9.226;2022-10-16T07:47:46;17.80;94.10
360;DHT22;168;48.872;9.226;2022-10-16T07:50:16;17.80;94.10
360;DHT22;168;48.872;9.226;2022-10-16T07:52:51;17.80;94.10
360;DHT22;168;48.872;9.226;2022-10-16T08:01:44;18.00;94.20
360;DHT22;168;48.872;9.226;2022-10-16T08:04:16;18.10;94.20
360;DHT22;168;48.872;9.226;2022-10-16T08:06:45;18.20;94.40
360;DHT22;168;48.872;9.226;2022-10-16T08:09:15;18.30;94.30
360;DHT22;168;48.872;9.226;2022-10-16T08:11:43;18.40;94.50
360;DHT22;168;48.872;9.226;2022-10-16T08:14:10;18.50;94.80
360;DHT22;168;48.872;9.226;2022-10-16T08:16:37;18.60;95.10
360;DHT22;168;48.872;9.226;2022-10-16T08:19:11;18.70;95.10
360;DHT22;168;48.872;9.226;2022-10-16T08:21:40;18.80;95.10
360;DHT22;168;48.872;9.226;2022-10-16T08:24:10;18.90;95.30
360;DHT22;168;48.872;9.226;2022-10-16T08:26:40;19.00;95.70
360;DHT22;168;48.872;9.226;2022-10-16T08:29:07;19.20;95.70
360;DHT22;168;48.872;9.226;2022-10-16T08:31:35;19.30;95.80
360;DHT22;168;48.872;9.226;2022-10-16T08:34:03;19.40;95.80
360;DHT22;168;48.872;9.226;2022-10-16T08:36:32;19.60;96.10
360;DHT22;168;48.872;9.226;2022-10-16T08:39:05;19.70;96.00
360;DHT22;168;48.872;9.226;2022-10-16T08:47:31;20.20;96.00
360;DHT22;168;48.872;9.226;2022-10-16T08:50:09;20.30;96.10
360;DHT22;168;48.872;9.226;2022-10-16T08:52:43;20.40;95.80
360;DHT22;168;48.872;9.226;2022-10-16T08:55:27;20.60;95.90
360;DHT22;168;48.872;9.226;2022-10-16T08:57:56;20.70;95.60
360;DHT22;168;48.872;9.226;2022-10-16T09:00:23;20.90;95.60
360;DHT22;168;48.872;9.226;2022-10-16T09:03:02;21.10;95.20
360;DHT22;168;48.872;9.226;2022-10-16T09:06:00;21.20;95.00
360;DHT22;168;48.872;9.226;2022-10-16T09:08:41;21.20;94.70
360;DHT22;168;48.872;9.226;2022-10-16T09:11:44;21.30;94.60
360;DHT22;168;48.872;9.226;2022-10-16T09:14:29;21.40;94.20
360;DHT22;168;48.872;9.226;2022-10-16T09:17:11;21.40;93.40
360;DHT22;168;48.872;9.226;2022-10-16T09:19:45;21.30;93.70
360;DHT22;168;48.872;9.226;2022-10-16T09:22:26;21.30;93.60
360;DHT22;168;48.872;9.226;2022-10-16T09:26:02;21.40;93.10
360;DHT22;168;48.872;9.226;2022-10-16T09:32:28;21.40;93.70
360;DHT22;168;48.872;9.226;2022-10-16T09:35:02;21.50;93.20
360;DHT22;168;48.872;9.226;2022-10-16T09:37:38;21.60;92.60
360;DHT22;168;48.872;9.226;2022-10-16T09:40:33;21.60;92.30
360;DHT22;168;48.872;9.226;2022-10-16T09:43:46;21.50;93.10
360;DHT22;168;48.872;9.226;2022-10-16T09:49:53;21.40;92.60
360;DHT22;168;48.872;9.226;2022-10-16T09:52:40;21.40;92.50
360;DHT22;168;48.872;9.226;2022-10-16T09:55:47;21.30;92.50
360;DHT22;168;48.872;9.226;2022-10-16T09:58:52;21.30;92.80
360;DHT22;168;48.872;9.226;2022-10-16T10:01:32;21.40;93.40
360;DHT22;168;48.872;9.226;2022-10-16T10:04:53;21.60;93.40
360;DHT22;168;48.872;9.226;2022-10-16T10:08:02;21.90;93.70
360;DHT22;168;48.872;9.226;2022-10-16T10:10:39;22.10;92.40
360;DHT22;168;48.872;9.226;2022-10-16T10:13:18;22.40;89.90
360;DHT22;168;48.872;9.226;2022-10-16T10:15:46;22.60;88.90
360;DHT22;168;48.872;9.226;2022-10-16T10:18:24;22.60;88.20
360;DHT22;168;48.872;9.226;2022-10-16T10:21:03;22.70;87.10
360;DHT22;168;48.872;9.226;2022-10-16T10:23:32;22.70;89.00
360;DHT22;168;48.872;9.226;2022-10-16T10:26:07;22.90;89.20
360;DHT22;168;48.872;9.226;2022-10-16T10:28:51;23.10;89.50
360;DHT22;168;48.872;9.226;2022-10-16T10:35:14;23.60;85.40
360;DHT22;168;48.872;9.226;2022-10-16T10:41:39;24.40;84.80
360;DHT22;168;48.872;9.226;2022-10-16T10:44:18;24.70;82.50
360;DHT22;168;48.872;9.226;2022-10-16T10:46:55;25.00;80.20
360;DHT22;168;48.872;9.226;2022-10-16T10:49:39;25.10;79.90
360;DHT22;168;48.872;9.226;2022-10-16T10:52:27;25.30;78.30
360;DHT22;168;48.872;9.226;2022-10-16T10:55:08;25.50;77.40
360;DHT22;168;48.872;9.226;2022-10-16T10:57:49;25.60;76.90
360;DHT22;168;48.872;9.226;2022-10-16T11:00:27;25.90;77.40
360;DHT22;168;48.872;9.226;2022-10-16T11:03:00;26.10;76.80
360;DHT22;168;48.872;9.226;2022-10-16T11:05:41;26.30;73.40
360;DHT22;168;48.872;9.226;2022-10-16T11:08:14;26.30;72.70
360;DHT22;168;48.872;9.226;2022-10-16T11:10:47;26.30;73.70
360;DHT22;168;48.872;9.226;2022-10-16T11:13:26;26.30;72.40
360;DHT22;168;48.872;9.226;2022-10-16T11:15:58;26.00;72.40
360;DHT22;168;48.872;9.226;2022-10-16T11:18:43;25.90;73.40
360;DHT22;168;48.872;9.226;2022-10-16T11:21:14;25.80;76.00
360;DHT22;168;48.872;9.226;2022-10-16T11:23:48;25.80;77.20
360;DHT22;168;48.872;9.226;2022-10-16T11:26:21;25.80;75.30
360;DHT22;168;48.872;9.226;2022-10-16T11:28:52;25.80;73.30
360;DHT22;168;48.872;9.226;2022-10-16T11:31:28;25.70;73.20
360;DHT22;168;48.872;9.226;2022-10-16T11:34:02;25.70;72.50
360;DHT22;168;48.872;9.226;2022-10-16T11:36:38;25.70;72.60
360;DHT22;168;48.872;9.226;2022-10-16T11:39:17;25.60;74.70
360;DHT22;168;48.872;9.226;2022-10-16T11:41:48;25.50;74.50
360;DHT22;168;48.872;9.226;2022-10-16T11:44:33;25.60;75.90
360;DHT22;168;48.872;9.226;2022-10-16T11:47:14;25.70;72.80
360;DHT22;168;48.872;9.226;2022-10-16T11:49:44;25.70;74.40
360;DHT22;168;48.872;9.226;2022-10-16T11:52:20;25.70;73.30
360;DHT22;168;48.872;9.226;2022-10-16T11:54:54;25.70;72.50
360;DHT22;168;48.872;9.226;2022-10-16T11:57:25;25.70;71.40
360;DHT22;168;48.872;9.226;2022-10-16T11:59:59;25.60;71.40
360;DHT22;168;48.872;9.226;2022-10-16T12:02:35;25.60;71.90
360;DHT22;168;48.872;9.226;2022-10-16T12:05:16;25.70;71.70
360;DHT22;168;48.872;9.226;2022-10-16T12:07:51;25.80;71.70
360;DHT22;168;48.872;9.226;2022-10-16T12:10:26;25.70;72.20
360;DHT22;168;48.872;9.226;2022-10-16T12:12:54;25.60;72.80
360;DHT22;168;48.872;9.226;2022-10-16T12:15:26;25.50;74.00
360;DHT22;168;48.872;9.226;2022-10-16T12:17:58;25.50;74.30
360;DHT22;168;48.872;9.226;2022-10-16T12:20:28;25.40;73.50
360;DHT22;168;48.872;9.226;2022-10-16T12:23:02;25.20;73.40
360;DHT22;168;48.872;9.226;2022-10-16T12:25:35;25.00;74.60
360;DHT22;168;48.872;9.226;2022-10-16T12:28:07;24.90;76.40
360;DHT22;168;48.872;9.226;2022-10-16T12:30:53;24.90;76.60
360;DHT22;168;48.872;9.226;2022-10-16T12:33:23;25.00;76.80
360;DHT22;168;48.872;9.226;2022-10-16T12:35:53;25.10;76.00
360;DHT22;168;48.872;9.226;2022-10-16T12:38:27;25.20;74.10
360;DHT22;168;48.872;9.226;2022-10-16T12:40:58;25.20;74.70
360;DHT22;168;48.872;9.226;2022-10-16T12:43:42;25.30;73.10
360;DHT22;168;48.872;9.226;2022-10-16T12:46:33;25.20;72.90
360;DHT22;168;48.872;9.226;2022-10-16T12:51:58;25.00;72.50
360;DHT22;168;48.872;9.226;2022-10-16T12:54:29;25.00;74.60
360;DHT22;168;48.872;9.226;2022-10-16T12:57:26;25.10;74.60
360;DHT22;168;48.872;9.226;2022-10-16T13:00:04;25.30;75.50
360;DHT22;168;48.872;9.226;2022-10-16T13:02:58;25.50;74.10
360;DHT22;168;48.872;9.226;2022-10-16T13:05:46;25.30;74.00
360;DHT22;168;48.872;9.226;2022-10-16T13:08:50;24.90;75.80
360;DHT22;168;48.872;9.226;2022-10-16T13:11:31;24.90;75.30
360;DHT22;168;48.872;9.226;2022-10-16T13:14:19;24.90;75.90
360;DHT22;168;48.872;9.226;2022-10-16T13:16:57;24.80;75.90
360;DHT22;168;48.872;9.226;2022-10-16T13:19:39;24.90;76.50
360;DHT22;168;48.872;9.226;2022-10-16T13:22:19;25.00;76.40
360;DHT22;168;48.872;9.226;2022-10-16T13:25:03;25.10;75.50
360;DHT22;168;48.872;9.226;2022-10-16T13:27:40;25.30;74.70
360;DHT22;168;48.872;9.226;2022-10-16T13:30:13;25.50;74.90
360;DHT22;168;48.872;9.226;2022-10-16T13:32:45;25.60;75.10
360;DHT22;168;48.872;9.226;2022-10-16T13:35:25;25.80;73.90
360;DHT22;168;48.872;9.226;2022-10-16T13:38:11;25.90;73.90
360;DHT22;168;48.872;9.226;2022-10-16T13:40:53;26.00;72.40
360;DHT22;168;48.872;9.226;2022-10-16T13:43:26;26.00;73.30
360;DHT22;168;48.872;9.226;2022-10-16T13:45:59;25.90;73.10
360;DHT22;168;48.872;9.226;2022-10-16T13:48:28;25.90;74.50
360;DHT22;168;48.872;9.226;2022-10-16T13:51:03;25.90;74.10
360;DHT22;168;48.872;9.226;2022-10-16T13:53:33;25.70;74.90
360;DHT22;168;48.872;9.226;2022-10-16T13:56:03;25.70;76.00
360;DHT22;168;48.872;9.226;2022-10-16T13:58:32;25.60;75.60
360;DHT22;168;48.872;9.226;2022-10-16T14:01:03;25.50;75.60
360;DHT22;168;48.872;9.226;2022-10-16T14:03:34;25.40;75.50
360;DHT22;168;48.872;9.226;2022-10-16T14:06:12;25.40;76.60
360;DHT22;168;48.872;9.226;2022-10-16T14:08:43;25.40;74.90
360;DHT22;168;48.872;9.226;2022-10-16T14:11:12;25.40;75.50
360;DHT22;168;48.872;9.226;2022-10-16T14:13:44;25.30;77.00
360;DHT22;168;48.872;9.226;2022-10-16T14:16:17;25.20;77.90
360;DHT22;168;48.872;9.226;2022-10-16T14:18:54;25.20;77.50
360;DHT22;168;48.872;9.226;2022-10-16T14:21:24;25.10;78.10
360;DHT22;168;48.872;9.226;2022-10-16T14:23:53;25.10;79.30
360;DHT22;168;48.872;9.226;2022-10-16T14:26:23;25.00;79.50
360;DHT22;168;48.872;9.226;2022-10-16T14:29:08;25.00;80.50
360;DHT22;168;48.872;9.226;2022-10-16T14:31:37;24.90;81.10
360;DHT22;168;48.872;9.226;2022-10-16T14:34:27;25.00;80.50
360;DHT22;168;48.872;9.226;2022-10-16T14:36:57;25.00;80.50
360;DHT22;168;48.872;9.226;2022-10-16T14:39:26;25.00;80.80
360;DHT22;168;48.872;9.226;2022-10-16T14:41:57;24.90;81.10
360;DHT22;168;48.872;9.226;2022-10-16T14:44:29;24.90;81.60
360;DHT22;168;48.872;9.226;2022-10-16T14:47:05;25.00;81.70
360;DHT22;168;48.872;9.226;2022-10-16T14:49:34;25.00;81.60
360;DHT22;168;48.872;9.226;2022-10-16T14:52:08;24.90;82.50
360;DHT22;168;48.872;9.226;2022-10-16T14:54:35;24.90;83.90
360;DHT22;168;48.872;9.226;2022-10-16T14:57:04;25.00;83.40
360;DHT22;168;48.872;9.226;2022-10-16T14:59:35;25.00;83.60
360;DHT22;168;48.872;9.226;2022-10-16T15:02:18;25.00;83.80
360;DHT22;168;48.872;9.226;2022-10-16T15:04:46;25.10;83.50
360;DHT22;168;48.872;9.226;2022-10-16T15:07:15;25.10;83.30
360;DHT22;168;48.872;9.226;2022-10-16T15:09:44;25.10;82.60
360;DHT22;168;48.872;9.226;2022-10-16T15:12:12;25.00;81.70
360;DHT22;168;48.872;9.226;2022-10-16T15:14:39;25.00;82.30
360;DHT22;168;48.872;9.226;2022-10-16T15:17:08;25.10;82.00
360;DHT22;168;48.872;9.226;2022-10-16T15:19:37;25.10;82.80
360;DHT22;168;48.872;9.226;2022-10-16T15:22:14;25.10;81.70
360;DHT22;168;48.872;9.226;2022-10-16T15:24:44;25.10;82.90
360;DHT22;168;48.872;9.226;2022-10-16T15:27:11;25.00;83.30
360;DHT22;168;48.872;9.226;2022-10-16T15:29:39;25.00;82.70
360;DHT22;168;48.872;9.226;2022-10-16T15:32:09;24.90;83.30
360;DHT22;168;48.872;9.226;2022-10-16T15:34:37;24.80;83.50
360;DHT22;168;48.872;9.226;2022-10-16T15:37:05;24.80;83.80
360;DHT22;168;48.872;9.226;2022-10-16T15:39:34;24.70;84.30
360;DHT22;168;48.872;9.226;2022-10-16T15:42:01;24.70;83.60
360;DHT22;168;48.872;9.226;2022-10-16T15:44:29;24.70;84.30
360;DHT22;168;48.872;9.226;2022-10-16T15:46:56;24.70;84.90
360;DHT22;168;48.872;9.226;2022-10-16T15:49:24;24.60;84.20
360;DHT22;168;48.872;9.226;2022-10-16T15:51:54;24.60;84.50
360;DHT22;168;48.872;9.226;2022-10-16T15:54:21;24.60;84.90
360;DHT22;168;48.872;9.226;2022-10-16T15:56:50;24.70;84.40
360;DHT22;168;48.872;9.226;2022-10-16T15:59:21;24.70;84.30
360;DHT22;168;48.872;9.226;2022-10-16T16:01:48;24.70;83.70
360;DHT22;168;48.872;9.226;2022-10-16T16:04:17;24.80;83.60
360;DHT22;168;48.872;9.226;2022-10-16T16:06:45;24.80;83.10
360;DHT22;168;48.872;9.226;2022-10-16T16:09:13;24.70;83.30
360;DHT22;168;48.872;9.226;2022-10-16T16:11:44;24.60;83.70
360;DHT22;168;48.872;9.226;2022-10-16T16:14:13;24.50;83.70
360;DHT22;168;48.872;9.226;2022-10-16T16:16:42;24.40;84.30
360;DHT22;168;48.872;9.226;2022-10-16T16:19:09;24.20;85.10
360;DHT22;168;48.872;9.226;2022-10-16T16:21:37;24.10;85.80
360;DHT22;168;48.872;9.226;2022-10-16T16:24:05;23.90;86.40
360;DHT22;168;48.872;9.226;2022-10-16T16:26:35;23.70;86.80
360;DHT22;168;48.872;9.226;2022-10-16T16:29:10;23.60;87.60
360;DHT22;168;48.872;9.226;2022-10-16T16:31:41;23.40;88.40
360;DHT22;168;48.872;9.226;2022-10-16T16:34:09;23.30;88.80
360;DHT22;168;48.872;9.226;2022-10-16T16:36:36;23.10;89.50
360;DHT22;168;48.872;9.226;2022-10-16T16:39:08;23.00;89.90
360;DHT22;168;48.872;9.226;2022-10-16T16:41:36;22.80;90.40
360;DHT22;168;48.872;9.226;2022-10-16T16:44:06;22.80;90.60
360;DHT22;168;48.872;9.226;2022-10-16T16:46:34;22.60;90.90
360;DHT22;168;48.872;9.226;2022-10-16T16:49:03;22.60;91.30
360;DHT22;168;48.872;9.226;2022-10-16T16:51:32;22.50;91.50
360;DHT22;168;48.872;9.226;2022-10-16T16:54:11;22.40;91.80
360;DHT22;168;48.872;9.226;2022-10-16T16:56:40;22.30;92.10
360;DHT22;168;48.872;9.226;2022-10-16T16:59:11;22.20;92.30
360;DHT22;168;48.872;9.226;2022-10-16T17:01:46;22.10;92.50
360;DHT22;168;48.872;9.226;2022-10-16T17:04:16;22.00;92.60
360;DHT22;168;48.872;9.226;2022-10-16T17:06:45;21.90;92.80
360;DHT22;168;48.872;9.226;2022-10-16T17:09:16;21.80;93.00
360;DHT22;168;48.872;9.226;2022-10-16T17:11:43;21.70;93.30
360;DHT22;168;48.872;9.226;2022-10-16T17:14:12;21.70;93.50
360;DHT22;168;48.872;9.226;2022-10-16T17:16:41;21.60;93.80
360;DHT22;168;48.872;9.226;2022-10-16T17:19:18;21.50;94.10
360;DHT22;168;48.872;9.226;2022-10-16T17:21:48;21.40;94.30
360;DHT22;168;48.872;9.226;2022-10-16T17:24:16;21.30;94.70
360;DHT22;168;48.872;9.226;2022-10-16T17:26:44;21.20;94.90
360;DHT22;168;48.872;9.226;2022-10-16T17:29:15;21.10;95.00
360;DHT22;168;48.872;9.226;2022-10-16T17:31:46;21.00;95.10
360;DHT22;168;48.872;9.226;2022-10-16T17:34:19;20.90;95.30
360;DHT22;168;48.872;9.226;2022-10-16T17:36:47;20.90;95.40
360;DHT22;168;48.872;9.226;2022-10-16T17:39:17;20.80;95.60
360;DHT22;168;48.872;9.226;2022-10-16T17:41:48;20.70;95.70
360;DHT22;168;48.872;9.226;2022-10-16T17:44:16;20.60;95.80
360;DHT22;168;48.872;9.226;2022-10-16T17:46:49;20.50;95.80
360;DHT22;168;48.872;9.226;2022-10-16T17:49:18;20.50;95.80
360;DHT22;168;48.872;9.226;2022-10-16T17:51:49;20.40;95.80
360;DHT22;168;48.872;9.226;2022-10-16T17:54:18;20.30;95.90
360;DHT22;168;48.872;9.226;2022-10-16T17:56:45;20.20;95.90
360;DHT22;168;48.872;9.226;2022-10-16T17:59:13;20.10;95.90
360;DHT22;168;48.872;9.226;2022-10-16T18:01:41;20.10;95.90
360;DHT22;168;48.872;9.226;2022-10-16T18:04:13;20.00;95.80
360;DHT22;168;48.872;9.226;2022-10-16T18:06:44;19.90;95.80
360;DHT22;168;48.872;9.226;2022-10-16T18:09:15;19.80;95.70
360;DHT22;168;48.872;9.226;2022-10-16T18:11:46;19.80;95.70